createdAt,value
2017-05-06T00:00:35.639Z,11.50
2017-05-06T00:03:03.351Z,11.50
2017-05-06T00:05:30.324Z,11.50
2017-05-06T00:07:57.318Z,11.50
2017-05-06T00:10:24.300Z,11.50
2017-05-06T00:12:51.286Z,11.50
2017-05-06T00:15:18.990Z,11.40
2017-05-06T00:17:45.993Z,11.40
2017-05-06T00:20:12.961Z,11.40
2017-05-06T00:22:39.964Z,11.40
2017-05-06T00:25:06.934Z,11.40
2017-05-06T00:27:33.904Z,11.40
2017-05-06T00:30:00.894Z,11.40
2017-05-06T00:32:27.870Z,11.40
2017-05-06T00:34:55.617Z,11.30
2017-05-06T00:37:22.578Z,11.20
2017-05-06T00:39:50.312Z,11.10
2017-05-06T00:42:17.302Z,11.10
2017-05-06T00:44:44.277Z,11.10
2017-05-06T00:47:11.273Z,11.00
2017-05-06T00:49:38.983Z,11.00
2017-05-06T00:52:05.975Z,11.00
2017-05-06T00:54:33.690Z,10.90
2017-05-06T00:59:34.404Z,10.80
2017-05-06T01:02:02.117Z,10.80
2017-05-06T01:04:29.125Z,10.70
2017-05-06T01:06:56.108Z,10.70
2017-05-06T01:09:23.119Z,10.70
2017-05-06T01:11:50.490Z,10.70
2017-05-06T01:14:17.461Z,10.60
2017-05-06T01:16:44.452Z,10.60
2017-05-06T01:19:12.193Z,10.60
2017-05-06T01:21:39.185Z,10.60
2017-05-06T01:24:06.145Z,10.60
2017-05-06T01:26:33.121Z,10.60
2017-05-06T01:29:00.120Z,10.60
2017-05-06T01:31:27.094Z,10.50
2017-05-06T01:33:54.130Z,10.50
2017-05-06T01:36:21.102Z,10.50
2017-05-06T01:38:48.116Z,10.50
2017-05-06T01:41:15.085Z,10.40
2017-05-06T01:43:42.054Z,10.40
2017-05-06T01:46:09.050Z,10.30
2017-05-06T01:48:36.012Z,10.30
2017-05-06T01:51:03.005Z,10.30
2017-05-06T01:53:30.711Z,10.30
2017-05-06T01:55:57.696Z,10.30
2017-05-06T01:58:24.683Z,10.30
2017-05-06T02:00:51.662Z,10.30
2017-05-06T02:03:18.649Z,10.20
2017-05-06T02:05:46.359Z,10.20
2017-05-06T02:08:13.369Z,10.20
2017-05-06T02:10:41.092Z,10.10
2017-05-06T02:13:08.091Z,10.10
2017-05-06T02:15:35.065Z,10.10
2017-05-06T02:18:02.066Z,10.10
2017-05-06T02:20:29.778Z,10.00
2017-05-06T02:22:56.769Z,10.10
2017-05-06T02:25:24.469Z,10.10
2017-05-06T02:27:51.482Z,10.10
2017-05-06T02:30:19.193Z,10.10
2017-05-06T02:32:46.161Z,10.10
2017-05-06T02:35:13.152Z,10.10
2017-05-06T02:37:40.123Z,10.00
2017-05-06T02:40:07.114Z,10.00
2017-05-06T02:42:34.075Z,9.90
2017-05-06T02:45:01.821Z,9.90
2017-05-06T02:47:28.788Z,9.80
2017-05-06T02:49:56.500Z,9.70
2017-05-06T02:52:23.496Z,9.70
2017-05-06T02:54:51.205Z,9.70
2017-05-06T02:57:18.195Z,9.70
2017-05-06T02:59:45.185Z,9.70
2017-05-06T03:02:12.190Z,9.60
2017-05-06T03:04:39.902Z,9.60
2017-05-06T03:07:06.901Z,9.60
2017-05-06T03:09:34.621Z,9.60
2017-05-06T03:12:01.590Z,9.60
2017-05-06T03:14:28.573Z,9.60
2017-05-06T03:16:55.548Z,9.60
2017-05-06T03:19:22.537Z,9.60
2017-05-06T03:21:49.523Z,9.60
2017-05-06T03:24:16.545Z,9.60
2017-05-06T03:26:44.251Z,9.60
2017-05-06T03:29:11.237Z,9.60
2017-05-06T03:31:38.230Z,9.60
2017-05-06T03:34:05.211Z,9.60
2017-05-06T03:36:32.209Z,9.60
2017-05-06T03:38:59.182Z,9.50
2017-05-06T03:41:26.189Z,9.50
2017-05-06T03:43:53.903Z,9.40
2017-05-06T03:46:20.870Z,9.40
2017-05-06T03:48:47.862Z,9.40
2017-05-06T03:51:14.882Z,9.40
2017-05-06T03:53:42.617Z,9.40
2017-05-06T03:56:09.586Z,9.40
2017-05-06T03:58:37.342Z,9.40
2017-05-06T04:01:04.308Z,9.40
2017-05-06T04:03:32.045Z,9.40
2017-05-06T04:05:59.030Z,9.40
2017-05-06T04:08:26.046Z,9.40
2017-05-06T04:10:53.015Z,9.40
2017-05-06T04:13:20.729Z,9.40
2017-05-06T04:15:47.719Z,9.40
2017-05-06T04:18:15.454Z,9.30
2017-05-06T04:20:42.465Z,9.30
2017-05-06T04:23:09.439Z,9.30
2017-05-06T04:25:36.446Z,9.30
2017-05-06T04:28:03.431Z,9.30
2017-05-06T04:30:30.413Z,9.30
2017-05-06T04:32:58.142Z,9.30
2017-05-06T04:35:25.116Z,9.30
2017-05-06T04:37:52.862Z,9.20
2017-05-06T04:40:19.832Z,9.20
2017-05-06T04:42:47.592Z,9.20
2017-05-06T04:45:15.310Z,9.20
2017-05-06T04:47:42.277Z,9.20
2017-05-06T04:50:09.266Z,9.30
2017-05-06T04:52:36.249Z,9.30
2017-05-06T04:55:03.342Z,9.30
2017-05-06T04:57:31.056Z,9.30
2017-05-06T04:59:58.071Z,9.40
2017-05-06T05:02:25.036Z,9.40
2017-05-06T05:04:52.019Z,9.50
2017-05-06T05:07:19.023Z,9.60
2017-05-06T05:09:46.009Z,9.60
2017-05-06T05:12:12.998Z,9.70
2017-05-06T05:14:39.993Z,9.80
2017-05-06T05:17:06.997Z,9.80
2017-05-06T05:19:33.971Z,9.90
2017-05-06T05:22:00.946Z,10.00
2017-05-06T05:24:27.939Z,10.00
2017-05-06T05:26:54.910Z,10.10
2017-05-06T05:29:21.906Z,10.10
2017-05-06T05:31:49.647Z,10.20
2017-05-06T05:34:16.661Z,10.30
2017-05-06T05:36:43.673Z,10.30
2017-05-06T05:39:10.674Z,10.30
2017-05-06T05:41:37.666Z,10.40
2017-05-06T05:44:04.642Z,10.40
2017-05-06T05:46:31.694Z,10.50
2017-05-06T05:48:58.661Z,10.60
2017-05-06T05:51:25.640Z,10.70
2017-05-06T05:53:52.651Z,10.70
2017-05-06T05:56:19.629Z,10.80
2017-05-06T05:58:46.637Z,10.90
2017-05-06T06:01:13.612Z,10.90
2017-05-06T06:03:41.359Z,10.90
2017-05-06T06:06:08.338Z,11.00
2017-05-06T06:08:35.306Z,11.10
2017-05-06T06:11:02.326Z,11.10
2017-05-06T06:13:29.293Z,11.20
2017-05-06T06:15:56.291Z,11.30
2017-05-06T06:20:57.615Z,11.40
2017-05-06T06:23:24.586Z,11.60
2017-05-06T06:25:52.301Z,11.60
2017-05-06T06:28:19.286Z,11.80
2017-05-06T06:30:47.028Z,11.80
2017-05-06T06:33:14.030Z,11.90
2017-05-06T06:35:40.997Z,12.00
2017-05-06T06:38:07.995Z,12.10
2017-05-06T06:40:35.718Z,12.20
2017-05-06T06:43:02.694Z,12.30
2017-05-06T06:45:30.426Z,12.30
2017-05-06T06:47:57.418Z,12.40
2017-05-06T06:50:24.442Z,12.50
2017-05-06T06:52:51.406Z,12.60
2017-05-06T06:55:19.141Z,12.70
2017-05-06T06:57:46.118Z,12.70
2017-05-06T07:00:13.884Z,12.80
2017-05-06T07:02:40.963Z,12.90
2017-05-06T07:05:08.045Z,13.00
2017-05-06T07:07:35.047Z,13.00
2017-05-06T07:10:02.407Z,13.10
2017-05-06T07:12:29.402Z,13.10
2017-05-06T07:14:56.895Z,13.20
2017-05-06T07:17:23.885Z,13.30
2017-05-06T07:19:50.859Z,13.30
2017-05-06T07:22:17.859Z,13.40
2017-05-06T07:24:45.000Z,13.40
2017-05-06T07:27:12.017Z,13.50
2017-05-06T07:29:38.994Z,13.50
2017-05-06T07:32:05.969Z,13.60
2017-05-06T07:34:33.735Z,13.60
2017-05-06T07:37:01.447Z,13.60
2017-05-06T07:39:28.425Z,13.70
2017-05-06T07:41:55.560Z,13.80
2017-05-06T07:44:22.569Z,13.80
2017-05-06T07:46:49.710Z,13.90
2017-05-06T07:49:16.712Z,13.90
2017-05-06T07:51:43.704Z,13.90
2017-05-06T07:54:10.682Z,14.00
2017-05-06T07:56:37.671Z,14.00
2017-05-06T07:59:04.665Z,14.10
2017-05-06T08:01:31.665Z,14.20
2017-05-06T08:03:58.646Z,14.30
2017-05-06T08:06:25.638Z,14.40
2017-05-06T08:08:53.390Z,14.50
2017-05-06T08:11:21.098Z,14.60
2017-05-06T08:13:48.083Z,14.70
2017-05-06T08:16:15.073Z,14.70
2017-05-06T08:18:42.456Z,14.80
2017-05-06T08:21:09.423Z,14.90
2017-05-06T08:23:36.430Z,14.90
2017-05-06T08:26:03.492Z,15.00
2017-05-06T08:28:30.916Z,15.10
2017-05-06T08:30:57.892Z,15.20
2017-05-06T08:33:25.107Z,15.20
2017-05-06T08:35:52.189Z,15.30
2017-05-06T08:38:19.216Z,15.40
2017-05-06T08:40:46.946Z,15.50
2017-05-06T08:43:14.151Z,15.60
2017-05-06T08:45:41.204Z,15.70
2017-05-06T08:48:08.174Z,15.70
2017-05-06T08:50:35.162Z,15.80
2017-05-06T08:53:02.234Z,15.80
2017-05-06T08:55:29.268Z,15.90
2017-05-06T08:57:57.005Z,16.00
2017-05-06T09:00:24.222Z,16.00
2017-05-06T09:02:51.324Z,16.10
2017-05-06T09:05:19.069Z,16.10
2017-05-06T09:07:46.031Z,16.10
2017-05-06T09:10:12.998Z,16.20
2017-05-06T09:12:40.741Z,16.20
2017-05-06T09:15:07.710Z,16.30
2017-05-06T09:17:34.704Z,16.30
2017-05-06T09:20:01.674Z,16.40
2017-05-06T09:22:29.403Z,16.40
2017-05-06T09:24:56.366Z,16.50
2017-05-06T09:27:23.360Z,16.60
2017-05-06T09:29:51.067Z,16.60
2017-05-06T09:32:18.050Z,16.70
2017-05-06T09:34:45.016Z,16.70
2017-05-06T09:37:11.985Z,16.80
2017-05-06T09:39:38.979Z,16.80
2017-05-06T09:42:05.942Z,16.90
2017-05-06T09:44:32.925Z,16.90
2017-05-06T09:46:59.887Z,16.90
2017-05-06T09:49:26.893Z,17.00
2017-05-06T09:51:53.880Z,17.00
2017-05-06T09:54:21.582Z,17.00
2017-05-06T09:56:49.314Z,17.00
2017-05-06T09:59:16.298Z,17.10
2017-05-06T10:01:44.025Z,17.10
2017-05-06T10:04:11.021Z,17.20
2017-05-06T10:06:38.023Z,17.20
2017-05-06T10:09:04.985Z,17.30
2017-05-06T10:11:31.950Z,17.30
2017-05-06T10:13:58.945Z,17.40
2017-05-06T10:16:25.931Z,17.40
2017-05-06T10:18:53.886Z,17.40
2017-05-06T10:21:20.894Z,17.50
2017-05-06T10:23:47.887Z,17.50
2017-05-06T10:26:15.780Z,17.50
2017-05-06T10:28:42.779Z,17.60
2017-05-06T10:31:09.750Z,17.70
2017-05-06T10:33:37.449Z,17.70
2017-05-06T10:36:04.428Z,17.80
2017-05-06T10:38:31.394Z,17.80
2017-05-06T10:40:58.387Z,18.00
2017-05-06T10:43:25.355Z,18.10
2017-05-06T10:45:52.359Z,18.30
2017-05-06T10:48:19.332Z,18.40
2017-05-06T10:50:46.449Z,18.40
2017-05-06T10:53:14.184Z,18.50
2017-05-06T10:55:41.162Z,18.50
2017-05-06T10:58:08.181Z,18.50
2017-05-06T11:00:35.147Z,18.60
2017-05-06T11:03:02.875Z,18.60
2017-05-06T11:05:29.846Z,18.70
2017-05-06T11:07:57.576Z,18.70
2017-05-06T11:10:24.554Z,18.80
2017-05-06T11:12:52.256Z,18.80
2017-05-06T11:15:19.271Z,18.90
2017-05-06T11:17:46.975Z,18.90
2017-05-06T11:20:13.974Z,19.00
2017-05-06T11:22:41.676Z,19.00
2017-05-06T11:25:08.642Z,19.10
2017-05-06T11:27:35.643Z,19.10
2017-05-06T11:30:02.637Z,19.20
2017-05-06T11:32:29.614Z,19.20
2017-05-06T11:34:56.573Z,19.30
2017-05-06T11:37:24.309Z,19.30
2017-05-06T11:39:51.274Z,19.40
2017-05-06T11:42:19.001Z,19.40
2017-05-06T11:44:45.990Z,19.50
2017-05-06T11:47:13.705Z,19.50
2017-05-06T11:49:40.707Z,19.60
2017-05-06T11:52:08.405Z,19.60
2017-05-06T11:54:35.406Z,19.60
2017-05-06T11:57:03.105Z,19.70
2017-05-06T11:59:30.132Z,19.80
2017-05-06T12:01:57.104Z,19.70
2017-05-06T12:04:24.066Z,19.80
2017-05-06T12:06:51.057Z,19.90
2017-05-06T12:09:18.780Z,19.90
2017-05-06T12:11:46.374Z,19.80
2017-05-06T12:14:14.088Z,19.80
2017-05-06T12:16:41.092Z,19.90
2017-05-06T12:19:08.795Z,19.80
2017-05-06T12:21:35.758Z,19.90
2017-05-06T12:24:03.483Z,19.90
2017-05-06T12:26:30.478Z,19.90
2017-05-06T12:28:58.206Z,19.90
2017-05-06T12:31:25.176Z,20.00
2017-05-06T12:33:59.741Z,19.90
2017-05-06T12:36:26.713Z,20.00
2017-05-06T12:38:53.712Z,20.00
2017-05-06T12:41:20.678Z,20.00
2017-05-06T12:43:47.695Z,20.00
2017-05-06T12:46:15.410Z,20.00
2017-05-06T12:48:42.394Z,20.00
2017-05-06T12:51:09.394Z,20.00
2017-05-06T12:53:36.384Z,20.00
2017-05-06T12:56:03.367Z,20.00
2017-05-06T12:58:30.362Z,20.10
2017-05-06T13:00:57.370Z,20.10
2017-05-06T13:03:24.349Z,20.20
2017-05-06T13:05:51.329Z,20.10
2017-05-06T13:08:18.324Z,20.10
2017-05-06T13:10:46.031Z,20.10
2017-05-06T13:13:13.028Z,20.10
2017-05-06T13:15:40.737Z,20.10
2017-05-06T13:18:07.721Z,20.10
2017-05-06T13:20:34.690Z,20.10
2017-05-06T13:23:01.679Z,20.10
2017-05-06T13:25:28.673Z,20.10
2017-05-06T13:27:55.896Z,20.10
2017-05-06T13:30:23.786Z,20.10
2017-05-06T13:32:50.776Z,20.10
2017-05-06T13:35:17.748Z,20.10
2017-05-06T13:37:44.732Z,20.10
2017-05-06T13:40:11.698Z,20.10
2017-05-06T13:42:38.687Z,20.10
2017-05-06T13:45:05.680Z,20.10
2017-05-06T13:47:33.398Z,20.10
2017-05-06T13:50:00.382Z,20.10
2017-05-06T13:52:27.346Z,20.10
2017-05-06T13:54:54.333Z,20.10
2017-05-06T13:57:21.333Z,20.10
2017-05-06T13:59:48.359Z,20.10
2017-05-06T14:02:16.069Z,20.10
2017-05-06T14:04:43.045Z,20.10
2017-05-06T14:07:10.786Z,20.00
2017-05-06T14:09:37.757Z,20.00
2017-05-06T14:12:04.758Z,20.00
2017-05-06T14:14:32.517Z,20.00
2017-05-06T14:16:59.494Z,20.00
2017-05-06T14:19:27.254Z,20.00
2017-05-06T14:21:54.249Z,20.00
2017-05-06T14:24:21.249Z,20.00
2017-05-06T14:26:48.231Z,20.00
2017-05-06T14:29:15.258Z,19.90
2017-05-06T14:31:42.238Z,19.90
2017-05-06T14:34:09.214Z,19.90
2017-05-06T14:36:36.206Z,19.90
2017-05-06T14:39:03.244Z,19.80
2017-05-06T14:41:30.998Z,19.80
2017-05-06T14:43:58.737Z,19.70
2017-05-06T14:46:25.779Z,19.70
2017-05-06T14:48:52.762Z,19.70
2017-05-06T14:51:19.737Z,19.70
2017-05-06T14:53:46.737Z,19.60
2017-05-06T14:56:13.729Z,19.50
2017-05-06T14:58:40.776Z,19.50
2017-05-06T15:01:07.750Z,19.40
2017-05-06T15:03:35.506Z,19.40
2017-05-06T15:06:02.482Z,19.30
2017-05-06T15:08:29.483Z,19.30
2017-05-06T15:10:56.554Z,19.20
2017-05-06T15:13:24.383Z,19.20
2017-05-06T15:15:51.403Z,19.10
2017-05-06T15:18:18.383Z,19.10
2017-05-06T15:20:45.385Z,19.00
2017-05-06T15:23:12.490Z,18.90
2017-05-06T15:25:39.535Z,18.80
2017-05-06T15:28:06.509Z,18.70
2017-05-06T15:30:33.521Z,18.60
2017-05-06T15:33:00.523Z,18.50
2017-05-06T15:35:27.491Z,18.40
2017-05-06T15:37:54.483Z,18.40
2017-05-06T15:40:22.233Z,18.30
2017-05-06T15:42:49.232Z,18.30
2017-05-06T15:45:16.260Z,18.20
2017-05-06T15:47:43.282Z,18.10
2017-05-06T15:50:11.009Z,18.10
2017-05-06T15:52:38.130Z,18.10
2017-05-06T15:55:05.842Z,18.00
2017-05-06T15:57:32.911Z,18.00
2017-05-06T15:59:59.907Z,18.00
2017-05-06T16:02:26.933Z,17.90
2017-05-06T16:04:54.082Z,17.90
2017-05-06T16:07:21.085Z,17.90
2017-05-06T16:09:48.208Z,17.80
2017-05-06T16:12:15.229Z,17.80
2017-05-06T16:14:42.291Z,17.70
2017-05-06T16:17:09.261Z,17.60
2017-05-06T16:19:36.223Z,17.60
2017-05-06T16:22:03.219Z,17.50
2017-05-06T16:24:30.289Z,17.50
2017-05-06T16:29:31.068Z,17.40
2017-05-06T16:31:58.237Z,17.30
2017-05-06T16:34:25.198Z,17.20
2017-05-06T16:36:53.082Z,17.20
2017-05-06T16:39:20.203Z,17.10
2017-05-06T16:41:54.220Z,17.00
2017-05-06T16:44:22.201Z,17.00
2017-05-06T16:46:49.274Z,16.90
2017-05-06T16:49:16.309Z,16.80
2017-05-06T16:51:43.419Z,16.80
2017-05-06T16:54:10.435Z,16.70
2017-05-06T16:56:37.403Z,16.70
2017-05-06T16:59:04.530Z,16.60
2017-05-06T17:01:31.499Z,16.50
2017-05-06T17:03:58.469Z,16.40
2017-05-06T17:06:26.216Z,16.40
2017-05-06T17:08:53.187Z,16.30
2017-05-06T17:11:20.205Z,16.20
2017-05-06T17:13:47.923Z,16.20
2017-05-06T17:16:29.860Z,16.10
2017-05-06T17:18:57.590Z,16.00
2017-05-06T17:21:24.582Z,16.00
2017-05-06T17:23:52.308Z,15.90
2017-05-06T17:26:19.306Z,15.90
2017-05-06T17:28:47.358Z,15.80
2017-05-06T17:31:14.509Z,15.80
2017-05-06T17:33:41.496Z,15.80
2017-05-06T17:36:08.457Z,15.70
2017-05-06T17:38:35.454Z,15.70
2017-05-06T17:41:03.162Z,15.70
2017-05-06T17:43:30.164Z,15.60
2017-05-06T17:45:57.992Z,15.60
2017-05-06T17:48:26.022Z,15.60
2017-05-06T17:50:53.018Z,15.60
2017-05-06T17:53:19.982Z,15.60
2017-05-06T17:55:47.711Z,15.50
2017-05-06T17:58:14.713Z,15.60
2017-05-06T18:00:41.706Z,15.50
2017-05-06T18:03:08.670Z,15.50
2017-05-06T18:05:36.418Z,15.60
2017-05-06T18:08:03.380Z,15.50
2017-05-06T18:10:31.089Z,15.50
2017-05-06T18:12:58.085Z,15.60
2017-05-06T18:15:25.791Z,15.50
2017-05-06T18:17:52.781Z,15.60
2017-05-06T18:20:19.745Z,15.50
2017-05-06T18:22:47.671Z,15.60
2017-05-06T18:25:15.273Z,15.60
2017-05-06T18:27:43.096Z,15.60
2017-05-06T18:30:10.814Z,15.60
2017-05-06T18:32:38.778Z,15.60
2017-05-06T18:35:05.754Z,15.60
2017-05-06T18:37:32.774Z,15.60
2017-05-06T18:39:59.782Z,15.60
2017-05-06T18:42:27.495Z,15.60
2017-05-06T18:44:54.487Z,15.60
2017-05-06T18:47:22.198Z,15.60
2017-05-06T18:49:49.183Z,15.60
2017-05-06T18:52:16.189Z,15.50
2017-05-06T18:54:43.205Z,15.60
2017-05-06T18:57:10.187Z,15.50
2017-05-06T18:59:37.191Z,15.60
2017-05-06T19:02:04.189Z,15.50
2017-05-06T19:04:31.169Z,15.50
2017-05-06T19:06:58.901Z,15.50
2017-05-06T19:09:27.613Z,15.60
2017-05-06T19:11:56.262Z,15.50
2017-05-06T19:14:23.239Z,15.60
2017-05-06T19:16:50.202Z,15.60
2017-05-06T19:19:17.938Z,15.50
2017-05-06T19:21:44.899Z,15.50
2017-05-06T19:24:11.885Z,15.50
2017-05-06T19:26:39.663Z,15.50
2017-05-06T19:29:06.656Z,15.50
2017-05-06T19:31:33.644Z,15.50
2017-05-06T19:34:01.376Z,15.50
2017-05-06T19:36:28.350Z,15.40
2017-05-06T19:38:56.086Z,15.40
2017-05-06T19:41:23.052Z,15.40
2017-05-06T19:43:50.110Z,15.30
2017-05-06T19:46:17.841Z,15.30
2017-05-06T19:48:44.822Z,15.30
2017-05-06T19:51:12.549Z,15.20
2017-05-06T19:53:39.514Z,15.20
2017-05-06T19:56:06.538Z,15.20
2017-05-06T19:58:33.565Z,15.10
2017-05-06T20:01:00.572Z,15.10
2017-05-06T20:03:28.369Z,15.00
2017-05-06T20:05:55.367Z,15.00
2017-05-06T20:08:22.357Z,15.00
2017-05-06T20:10:49.333Z,15.00
2017-05-06T20:13:16.336Z,15.00
2017-05-06T20:15:43.305Z,15.00
2017-05-06T20:18:10.346Z,15.00
2017-05-06T20:20:37.349Z,15.00
2017-05-06T20:23:05.094Z,14.90
2017-05-06T20:25:32.058Z,14.90
2017-05-06T20:27:59.058Z,14.90
2017-05-06T20:30:26.050Z,15.00
2017-05-06T20:32:53.763Z,14.90
2017-05-06T20:35:20.782Z,14.90
2017-05-06T20:37:47.746Z,14.90
2017-05-06T20:40:16.194Z,14.90
2017-05-06T20:42:43.940Z,14.90
2017-05-06T20:45:10.949Z,14.90
2017-05-06T20:47:37.969Z,14.90
2017-05-06T20:50:04.958Z,14.90
2017-05-06T20:52:31.967Z,14.90
2017-05-06T20:54:58.934Z,14.90
2017-05-06T20:57:26.104Z,14.90
2017-05-06T20:59:53.103Z,14.80
2017-05-06T21:02:20.072Z,14.80
2017-05-06T21:04:47.067Z,14.80
2017-05-06T21:07:14.033Z,14.80
2017-05-06T21:09:41.761Z,14.80
2017-05-06T21:12:08.725Z,14.80
2017-05-06T21:14:36.474Z,14.70
2017-05-06T21:17:03.452Z,14.80
2017-05-06T21:19:31.160Z,14.70
2017-05-06T21:21:58.166Z,14.80
2017-05-06T21:24:25.149Z,14.70
2017-05-06T21:26:52.133Z,14.70
2017-05-06T21:29:19.103Z,14.70
2017-05-06T21:31:46.114Z,14.70
2017-05-06T21:34:13.206Z,14.70
2017-05-06T21:36:40.325Z,14.70
2017-05-06T21:39:08.055Z,14.60
2017-05-06T21:41:35.022Z,14.70
2017-05-06T21:44:02.152Z,14.70
2017-05-06T21:46:29.278Z,14.60
2017-05-06T21:48:56.270Z,14.70
2017-05-06T21:51:23.271Z,14.70
2017-05-06T21:53:50.299Z,14.70
2017-05-06T21:56:17.284Z,14.70
2017-05-06T21:58:44.277Z,14.70
2017-05-06T22:01:12.008Z,14.70
2017-05-06T22:03:38.984Z,14.70
2017-05-06T22:06:06.722Z,14.60
2017-05-06T22:08:33.689Z,14.60
2017-05-06T22:11:01.441Z,14.60
2017-05-06T22:13:28.412Z,14.60
2017-05-06T22:15:55.389Z,14.60
2017-05-06T22:18:22.383Z,14.60
2017-05-06T22:20:50.086Z,14.60
2017-05-06T22:23:17.126Z,14.60
2017-05-06T22:25:44.093Z,14.60
2017-05-06T22:28:11.095Z,14.60
2017-05-06T22:30:38.805Z,14.60
2017-05-06T22:33:05.778Z,14.60
2017-05-06T22:35:32.753Z,14.60
2017-05-06T22:38:00.473Z,14.60
2017-05-06T22:40:27.476Z,14.60
2017-05-06T22:42:54.442Z,14.60
2017-05-06T22:45:21.408Z,14.60
2017-05-06T22:47:48.399Z,14.50
2017-05-06T22:50:16.105Z,14.50
2017-05-06T22:52:43.092Z,14.50
2017-05-06T22:55:10.054Z,14.50
2017-05-06T22:57:37.813Z,14.50
2017-05-06T23:00:05.543Z,14.50
2017-05-06T23:02:32.569Z,14.40
2017-05-06T23:04:59.559Z,14.50
2017-05-06T23:07:26.537Z,14.50
2017-05-06T23:09:53.523Z,14.40
2017-05-06T23:12:20.490Z,14.40
2017-05-06T23:14:47.476Z,14.40
2017-05-06T23:17:14.442Z,14.40
2017-05-06T23:19:41.436Z,14.40
2017-05-06T23:22:08.405Z,14.40
2017-05-06T23:24:35.381Z,14.40
2017-05-06T23:27:02.365Z,14.40
2017-05-06T23:29:29.333Z,14.40
2017-05-06T23:31:57.071Z,14.40
2017-05-06T23:34:24.038Z,14.40
2017-05-06T23:36:51.774Z,14.40
2017-05-06T23:39:18.814Z,14.30
2017-05-06T23:41:45.775Z,14.30
2017-05-06T23:44:12.765Z,14.30
2017-05-06T23:46:39.738Z,14.30
2017-05-06T23:49:06.722Z,14.30
2017-05-06T23:51:34.432Z,14.30
2017-05-06T23:54:01.433Z,14.30
2017-05-06T23:56:29.147Z,14.30
2017-05-06T23:58:56.169Z,14.30
